createdAt,value
2017-09-11T00:00:49.993Z,0
2017-09-11T00:01:50.711Z,0
2017-09-11T00:02:51.450Z,0
2017-09-11T00:03:52.193Z,0
2017-09-11T00:04:52.910Z,0
2017-09-11T00:05:53.625Z,0
2017-09-11T00:06:54.347Z,0
2017-09-11T00:07:55.064Z,0
2017-09-11T00:08:55.785Z,0
2017-09-11T00:09:56.498Z,0
2017-09-11T00:10:57.234Z,0
2017-09-11T00:11:57.957Z,0
2017-09-11T00:12:58.674Z,0
2017-09-11T00:13:59.391Z,0
2017-09-11T00:15:00.133Z,0
2017-09-11T00:16:00.851Z,0
2017-09-11T00:17:01.591Z,0
2017-09-11T00:18:02.318Z,0
2017-09-11T00:19:03.029Z,0
2017-09-11T00:20:03.748Z,0
2017-09-11T00:21:04.465Z,0
2017-09-11T00:22:05.207Z,0
2017-09-11T00:23:05.948Z,0
2017-09-11T00:24:06.663Z,0
2017-09-11T00:25:07.383Z,0
2017-09-11T00:26:08.100Z,0
2017-09-11T00:27:08.816Z,0
2017-09-11T00:28:09.537Z,0
2017-09-11T00:29:10.255Z,0
2017-09-11T00:30:10.979Z,0
2017-09-11T00:31:11.690Z,0
2017-09-11T00:32:12.436Z,0
2017-09-11T00:33:13.174Z,0
2017-09-11T00:34:13.917Z,0
2017-09-11T00:35:14.628Z,0
2017-09-11T00:36:15.369Z,0
2017-09-11T00:37:16.107Z,0
2017-09-11T00:38:16.823Z,0
2017-09-11T00:39:17.542Z,0
2017-09-11T00:40:18.261Z,0
2017-09-11T00:41:19.003Z,0
2017-09-11T00:42:19.745Z,0
2017-09-11T00:43:20.479Z,0
2017-09-11T00:44:21.196Z,0
2017-09-11T00:45:21.936Z,0
2017-09-11T00:46:22.654Z,0
2017-09-11T00:47:23.394Z,0
2017-09-11T00:48:24.136Z,0
2017-09-11T00:49:24.855Z,0
2017-09-11T00:50:25.597Z,0
2017-09-11T00:51:26.312Z,0
2017-09-11T00:52:27.029Z,0
2017-09-11T00:53:27.748Z,0
2017-09-11T00:54:28.465Z,0
2017-09-11T00:55:29.184Z,0
2017-09-11T00:56:29.901Z,0
2017-09-11T00:57:30.621Z,0
2017-09-11T00:58:31.358Z,0
2017-09-11T00:59:32.077Z,0
2017-09-11T01:00:32.793Z,0
2017-09-11T01:01:33.510Z,0
2017-09-11T01:02:34.232Z,0
2017-09-11T01:03:34.948Z,0
2017-09-11T01:04:35.662Z,0
2017-09-11T01:05:36.382Z,0
2017-09-11T01:06:37.099Z,0
2017-09-11T01:07:37.817Z,0
2017-09-11T01:08:38.535Z,0
2017-09-11T01:09:39.254Z,0
2017-09-11T01:10:39.973Z,0
2017-09-11T01:11:40.691Z,0
2017-09-11T01:12:41.431Z,0
2017-09-11T01:13:42.151Z,0
2017-09-11T01:14:42.891Z,0
2017-09-11T01:15:43.612Z,0
2017-09-11T01:16:44.355Z,0
2017-09-11T01:17:45.074Z,0
2017-09-11T01:18:45.790Z,0
2017-09-11T01:19:46.528Z,0
2017-09-11T01:20:47.246Z,0
2017-09-11T01:21:47.967Z,0
2017-09-11T01:22:48.707Z,0
2017-09-11T01:23:49.426Z,0
2017-09-11T01:24:50.143Z,0
2017-09-11T01:25:50.882Z,0
2017-09-11T01:26:51.601Z,0
2017-09-11T01:27:52.343Z,0
2017-09-11T01:28:53.061Z,0
2017-09-11T01:29:53.781Z,0
2017-09-11T01:30:54.500Z,0
2017-09-11T01:31:55.240Z,0
2017-09-11T01:32:55.982Z,0
2017-09-11T01:33:56.699Z,0
2017-09-11T01:34:57.417Z,0
2017-09-11T01:35:58.136Z,0
2017-09-11T01:36:58.850Z,0
2017-09-11T01:37:59.570Z,0
2017-09-11T01:39:00.299Z,0
2017-09-11T01:40:01.007Z,0
2017-09-11T01:41:01.747Z,0
2017-09-11T01:42:02.490Z,0
2017-09-11T01:43:03.207Z,0
2017-09-11T01:44:03.926Z,0
2017-09-11T01:45:04.643Z,0
2017-09-11T01:46:05.362Z,0
2017-09-11T01:47:06.083Z,0
2017-09-11T01:48:06.821Z,0
2017-09-11T01:49:07.563Z,0
2017-09-11T01:50:08.288Z,0
2017-09-11T01:51:09.022Z,0
2017-09-11T01:52:09.739Z,0
2017-09-11T01:53:10.457Z,0
2017-09-11T01:54:11.176Z,0
2017-09-11T01:55:11.893Z,0
2017-09-11T01:56:12.635Z,0
2017-09-11T01:57:13.355Z,0
2017-09-11T01:58:14.093Z,0
2017-09-11T01:59:14.812Z,0
2017-09-11T02:00:15.534Z,0
2017-09-11T02:01:16.272Z,0
2017-09-11T02:02:16.990Z,0
2017-09-11T02:03:17.728Z,0
2017-09-11T02:04:18.453Z,0
2017-09-11T02:05:19.166Z,0
2017-09-11T02:06:19.883Z,0
2017-09-11T02:07:20.602Z,0
2017-09-11T02:08:21.318Z,0
2017-09-11T02:09:22.035Z,0
2017-09-11T02:10:22.752Z,0
2017-09-11T02:11:23.493Z,0
2017-09-11T02:12:24.211Z,0
2017-09-11T02:13:24.928Z,0
2017-09-11T02:14:25.649Z,0
2017-09-11T02:15:26.365Z,0
2017-09-11T02:16:27.081Z,0
2017-09-11T02:17:27.802Z,0
2017-09-11T02:18:28.519Z,0
2017-09-11T02:19:29.260Z,0
2017-09-11T02:20:29.980Z,0
2017-09-11T02:21:30.695Z,0
2017-09-11T02:22:31.438Z,0
2017-09-11T02:23:32.155Z,0
2017-09-11T02:24:32.872Z,0
2017-09-11T02:25:33.594Z,0
2017-09-11T02:26:34.314Z,0
2017-09-11T02:27:35.037Z,0
2017-09-11T02:28:35.773Z,0
2017-09-11T02:29:36.498Z,0
2017-09-11T02:30:37.212Z,0
2017-09-11T02:31:37.933Z,0
2017-09-11T02:32:38.658Z,0
2017-09-11T02:33:39.396Z,0
2017-09-11T02:34:40.138Z,0
2017-09-11T02:35:40.867Z,0
2017-09-11T02:36:41.604Z,0
2017-09-11T02:37:42.323Z,0
2017-09-11T02:38:43.041Z,0
2017-09-11T02:39:43.782Z,0
2017-09-11T02:40:44.506Z,0
2017-09-11T02:41:45.242Z,0
2017-09-11T02:42:45.960Z,0
2017-09-11T02:43:46.685Z,0
2017-09-11T02:44:47.425Z,0
2017-09-11T02:45:48.167Z,0
2017-09-11T02:46:48.887Z,0
2017-09-11T02:47:49.606Z,0
2017-09-11T02:48:50.322Z,0
2017-09-11T02:49:51.042Z,0
2017-09-11T02:50:51.762Z,0
2017-09-11T02:51:52.503Z,0
2017-09-11T02:52:53.223Z,0
2017-09-11T02:53:53.939Z,0
2017-09-11T02:54:54.680Z,0
2017-09-11T02:55:55.424Z,0
2017-09-11T02:56:56.164Z,0
2017-09-11T02:57:56.883Z,0
2017-09-11T02:58:57.603Z,0
2017-09-11T02:59:58.324Z,0
2017-09-11T03:00:59.042Z,0
2017-09-11T03:01:59.762Z,0
2017-09-11T03:03:00.480Z,0
2017-09-11T03:04:01.199Z,0
2017-09-11T03:05:01.916Z,0
2017-09-11T03:06:02.634Z,0
2017-09-11T03:07:03.353Z,0
2017-09-11T03:08:04.073Z,0
2017-09-11T03:09:04.792Z,0
2017-09-11T03:10:05.515Z,0
2017-09-11T03:11:06.230Z,0
2017-09-11T03:12:06.955Z,0
2017-09-11T03:13:07.673Z,0
2017-09-11T03:14:08.391Z,0
2017-09-11T03:15:09.112Z,0
2017-09-11T03:16:09.827Z,0
2017-09-11T03:17:10.546Z,0
2017-09-11T03:18:11.266Z,0
2017-09-11T03:19:11.987Z,0
2017-09-11T03:20:12.731Z,0
2017-09-11T03:21:13.451Z,0
2017-09-11T03:22:14.194Z,0
2017-09-11T03:23:14.912Z,0
2017-09-11T03:24:15.632Z,0
2017-09-11T03:25:16.377Z,0
2017-09-11T03:26:17.117Z,0
2017-09-11T03:27:17.855Z,0
2017-09-11T03:28:18.574Z,0
2017-09-11T03:29:19.293Z,0
2017-09-11T03:30:20.011Z,0
2017-09-11T03:31:20.754Z,0
2017-09-11T03:32:21.496Z,0
2017-09-11T03:33:22.233Z,0
2017-09-11T03:34:22.950Z,0
2017-09-11T03:35:23.668Z,0
2017-09-11T03:36:24.410Z,0
2017-09-11T03:37:25.131Z,0
2017-09-11T03:38:25.851Z,0
2017-09-11T03:39:26.569Z,0
2017-09-11T03:40:27.289Z,0
2017-09-11T03:41:28.005Z,0
2017-09-11T03:42:28.723Z,0
2017-09-11T03:43:29.467Z,0
2017-09-11T03:44:30.183Z,0
2017-09-11T03:45:30.904Z,0
2017-09-11T03:46:31.620Z,0
2017-09-11T03:47:32.338Z,0
2017-09-11T03:48:33.082Z,0
2017-09-11T03:49:33.800Z,0
2017-09-11T03:50:34.518Z,0
2017-09-11T03:51:35.259Z,0
2017-09-11T03:52:35.977Z,0
2017-09-11T03:53:36.699Z,0
2017-09-11T03:54:37.416Z,0
2017-09-11T03:55:38.135Z,0
2017-09-11T03:56:38.855Z,0
2017-09-11T03:57:39.596Z,0
2017-09-11T03:58:40.314Z,0
2017-09-11T03:59:41.034Z,0
2017-09-11T04:00:41.773Z,0
2017-09-11T04:01:42.493Z,0
2017-09-11T04:02:43.211Z,0
2017-09-11T04:03:43.930Z,0
2017-09-11T04:04:44.648Z,0
2017-09-11T04:05:45.366Z,0
2017-09-11T04:06:46.086Z,0
2017-09-11T04:07:46.809Z,0
2017-09-11T04:08:47.525Z,0
2017-09-11T04:09:48.246Z,0
2017-09-11T04:10:48.987Z,0
2017-09-11T04:11:49.705Z,0
2017-09-11T04:12:50.446Z,0
2017-09-11T04:13:51.166Z,0
2017-09-11T04:14:51.907Z,0
2017-09-11T04:15:52.650Z,0
2017-09-11T04:16:53.371Z,0
2017-09-11T04:17:54.089Z,0
2017-09-11T04:18:54.839Z,0
2017-09-11T04:19:55.576Z,0
2017-09-11T04:20:56.293Z,0
2017-09-11T04:21:57.017Z,0
2017-09-11T04:22:57.756Z,0
2017-09-11T04:23:58.473Z,0
2017-09-11T04:24:59.194Z,0
2017-09-11T04:25:59.910Z,0
2017-09-11T04:27:00.652Z,0
2017-09-11T04:28:01.370Z,0
2017-09-11T04:29:02.091Z,0
2017-09-11T04:30:02.812Z,0
2017-09-11T04:31:03.528Z,0
2017-09-11T04:32:04.248Z,0
2017-09-11T04:33:04.990Z,4
2017-09-11T04:34:05.706Z,4
2017-09-11T04:35:06.425Z,4
2017-09-11T04:36:07.167Z,0
2017-09-11T04:37:07.913Z,4
2017-09-11T04:38:08.628Z,8
2017-09-11T04:39:09.346Z,8
2017-09-11T04:40:10.062Z,8
2017-09-11T04:41:10.804Z,4
2017-09-11T04:42:11.522Z,8
2017-09-11T04:43:12.267Z,12
2017-09-11T04:44:12.985Z,8
2017-09-11T04:45:13.705Z,12
2017-09-11T04:46:14.425Z,16
2017-09-11T04:47:15.145Z,20
2017-09-11T04:48:15.866Z,20
2017-09-11T04:49:16.611Z,20
2017-09-11T04:50:17.334Z,24
2017-09-11T04:51:18.052Z,28
2017-09-11T04:52:18.775Z,28
2017-09-11T04:53:19.494Z,20
2017-09-11T04:54:20.213Z,28
2017-09-11T04:55:20.935Z,32
2017-09-11T04:56:21.678Z,44
2017-09-11T04:57:22.420Z,44
2017-09-11T04:58:23.163Z,44
2017-09-11T04:59:23.885Z,60
2017-09-11T05:00:24.602Z,72
2017-09-11T05:01:25.324Z,96
2017-09-11T05:02:26.044Z,112
2017-09-11T05:03:26.764Z,144
2017-09-11T05:04:27.488Z,168
2017-09-11T05:05:28.229Z,196
2017-09-11T05:06:28.956Z,224
2017-09-11T05:07:29.699Z,260
2017-09-11T05:08:30.422Z,260
2017-09-11T05:09:31.142Z,232
2017-09-11T05:10:31.887Z,236
2017-09-11T05:11:32.632Z,332
2017-09-11T05:12:33.352Z,364
2017-09-11T05:13:34.074Z,396
2017-09-11T05:14:34.798Z,448
2017-09-11T05:15:35.519Z,464
2017-09-11T05:16:36.241Z,484
2017-09-11T05:17:36.983Z,504
2017-09-11T05:18:37.708Z,532
2017-09-11T05:19:38.431Z,568
2017-09-11T05:20:39.177Z,568
2017-09-11T05:21:39.900Z,568
2017-09-11T05:22:40.622Z,624
2017-09-11T05:23:41.344Z,648
2017-09-11T05:24:42.068Z,628
2017-09-11T05:25:42.800Z,516
2017-09-11T05:26:43.515Z,512
2017-09-11T05:27:44.237Z,460
2017-09-11T05:28:44.983Z,484
2017-09-11T05:29:45.709Z,492
2017-09-11T05:30:46.432Z,528
2017-09-11T05:31:47.156Z,516
2017-09-11T05:32:47.875Z,516
2017-09-11T05:33:48.600Z,488
2017-09-11T05:34:49.344Z,508
2017-09-11T05:35:50.066Z,504
2017-09-11T05:36:50.791Z,576
2017-09-11T05:37:51.514Z,628
2017-09-11T05:38:52.235Z,692
2017-09-11T05:39:52.982Z,772
2017-09-11T05:40:53.704Z,912
2017-09-11T05:41:54.430Z,1004
2017-09-11T05:42:55.153Z,996
2017-09-11T05:43:55.875Z,1044
2017-09-11T05:44:56.599Z,1284
2017-09-11T05:45:57.323Z,1580
2017-09-11T05:46:58.045Z,1748
2017-09-11T05:47:58.767Z,1816
2017-09-11T05:48:59.493Z,1696
2017-09-11T05:50:00.237Z,1680
2017-09-11T05:51:00.984Z,1612
2017-09-11T05:52:01.708Z,1488
2017-09-11T05:53:02.452Z,1612
2017-09-11T05:54:03.179Z,1808
2017-09-11T05:55:03.905Z,1976
2017-09-11T05:56:04.629Z,1916
2017-09-11T05:57:05.355Z,1732
2017-09-11T05:58:06.079Z,1636
2017-09-11T05:59:06.801Z,1652
2017-09-11T06:00:07.525Z,1900
2017-09-11T06:01:08.250Z,2056
2017-09-11T06:02:08.972Z,2312
2017-09-11T06:03:09.696Z,2112
2017-09-11T06:04:10.421Z,1544
2017-09-11T06:05:11.146Z,1412
2017-09-11T06:06:11.892Z,1652
2017-09-11T06:07:12.617Z,1964
2017-09-11T06:08:13.367Z,2444
2017-09-11T06:09:14.091Z,2544
2017-09-11T06:10:14.811Z,2772
2017-09-11T06:11:15.538Z,2600
2017-09-11T06:12:16.282Z,2160
2017-09-11T06:13:17.013Z,1688
2017-09-11T06:14:17.733Z,1348
2017-09-11T06:15:18.458Z,1312
2017-09-11T06:16:19.178Z,1240
2017-09-11T06:17:19.903Z,1464
2017-09-11T06:18:20.628Z,1912
2017-09-11T06:19:21.354Z,2480
2017-09-11T06:20:22.078Z,1232
2017-09-11T06:21:22.799Z,820
2017-09-11T06:22:23.520Z,756
2017-09-11T06:23:24.244Z,676
2017-09-11T06:24:24.966Z,768
2017-09-11T06:25:25.710Z,1132
2017-09-11T06:26:26.434Z,1772
2017-09-11T06:27:27.159Z,2236
2017-09-11T06:28:27.879Z,2572
2017-09-11T06:29:28.606Z,2364
2017-09-11T06:30:29.330Z,2424
2017-09-11T06:31:30.052Z,2152
2017-09-11T06:32:30.775Z,1944
2017-09-11T06:33:31.499Z,2280
2017-09-11T06:34:32.225Z,2120
2017-09-11T06:35:32.950Z,1792
2017-09-11T06:36:33.672Z,1612
2017-09-11T06:37:34.394Z,1556
2017-09-11T06:38:35.119Z,1492
2017-09-11T06:39:35.844Z,1284
2017-09-11T06:40:36.569Z,1140
2017-09-11T06:41:37.294Z,800
2017-09-11T06:42:38.013Z,556
2017-09-11T06:43:38.737Z,504
2017-09-11T06:44:39.457Z,532
2017-09-11T06:45:40.182Z,568
2017-09-11T06:46:40.904Z,596
2017-09-11T06:47:41.627Z,632
2017-09-11T06:48:42.371Z,952
2017-09-11T06:49:43.092Z,848
2017-09-11T06:50:43.815Z,768
2017-09-11T06:51:44.538Z,932
2017-09-11T06:52:45.263Z,1164
2017-09-11T06:53:46.008Z,1224
2017-09-11T06:54:46.734Z,1284
2017-09-11T06:55:47.456Z,2076
2017-09-11T06:56:48.180Z,2196
2017-09-11T06:57:48.903Z,2556
2017-09-11T06:58:49.628Z,3132
2017-09-11T06:59:50.352Z,3212
2017-09-11T07:00:51.076Z,3424
2017-09-11T07:01:51.804Z,3468
2017-09-11T07:02:52.527Z,3320
2017-09-11T07:03:53.274Z,3556
2017-09-11T07:04:54.004Z,3636
2017-09-11T07:05:54.729Z,3616
2017-09-11T07:06:55.452Z,3896
2017-09-11T07:07:56.201Z,4452
2017-09-11T07:08:56.927Z,4568
2017-09-11T07:09:57.649Z,4636
2017-09-11T07:10:58.374Z,5000
2017-09-11T07:11:59.100Z,5136
2017-09-11T07:12:59.839Z,5604
2017-09-11T07:14:00.552Z,6084
2017-09-11T07:15:01.278Z,6760
2017-09-11T07:16:02.004Z,7232
2017-09-11T07:17:02.732Z,7688
2017-09-11T07:18:03.459Z,7976
2017-09-11T07:19:04.186Z,7900
2017-09-11T07:20:04.914Z,7532
2017-09-11T07:21:05.641Z,6740
2017-09-11T07:22:06.368Z,6516
2017-09-11T07:23:07.091Z,7184
2017-09-11T07:24:07.820Z,9556
2017-09-11T07:25:08.548Z,12220
2017-09-11T07:26:09.271Z,6968
2017-09-11T07:27:09.999Z,6428
2017-09-11T07:28:10.727Z,6020
2017-09-11T07:29:11.455Z,6280
2017-09-11T07:30:12.183Z,6788
2017-09-11T07:31:12.933Z,7028
2017-09-11T07:32:13.662Z,7776
2017-09-11T07:33:14.413Z,9040
2017-09-11T07:34:15.138Z,9072
2017-09-11T07:35:15.866Z,7912
2017-09-11T07:36:16.592Z,6884
2017-09-11T07:37:17.322Z,6696
2017-09-11T07:38:18.049Z,7856
2017-09-11T07:39:18.779Z,8008
2017-09-11T07:40:19.528Z,13512
2017-09-11T07:41:20.259Z,10424
2017-09-11T07:42:20.991Z,10084
2017-09-11T07:43:21.741Z,10584
2017-09-11T07:44:22.467Z,10096
2017-09-11T07:45:23.194Z,10592
2017-09-11T07:46:23.925Z,21312
2017-09-11T07:47:24.673Z,8872
2017-09-11T07:48:25.400Z,8256
2017-09-11T07:49:26.131Z,7796
2017-09-11T07:50:26.859Z,7456
2017-09-11T07:51:27.584Z,7136
2017-09-11T07:52:28.333Z,7600
2017-09-11T07:53:29.059Z,7772
2017-09-11T07:54:29.788Z,7688
2017-09-11T07:55:30.519Z,7304
2017-09-11T07:56:31.247Z,6444
2017-09-11T07:57:31.974Z,5728
2017-09-11T07:58:32.704Z,5600
2017-09-11T07:59:33.427Z,6276
2017-09-11T08:00:34.154Z,6324
2017-09-11T08:01:34.883Z,5872
2017-09-11T08:02:35.631Z,7220
2017-09-11T08:03:36.357Z,9736
2017-09-11T08:04:37.088Z,14312
2017-09-11T08:05:37.813Z,9004
2017-09-11T08:06:38.542Z,7896
2017-09-11T08:07:39.269Z,9736
2017-09-11T08:08:40.003Z,11184
2017-09-11T08:09:40.727Z,17536
2017-09-11T08:10:41.455Z,16640
2017-09-11T08:11:42.188Z,18208
2017-09-11T08:12:42.917Z,20160
2017-09-11T08:13:43.648Z,15328
2017-09-11T08:14:44.378Z,8912
2017-09-11T08:15:45.105Z,6384
2017-09-11T08:16:45.837Z,4980
2017-09-11T08:17:46.568Z,4680
2017-09-11T08:18:47.321Z,4664
2017-09-11T08:19:48.048Z,6268
2017-09-11T08:20:48.778Z,8420
2017-09-11T08:21:49.508Z,9988
2017-09-11T08:22:50.260Z,8308
2017-09-11T08:23:50.989Z,10680
2017-09-11T08:24:51.742Z,13996
2017-09-11T08:25:52.474Z,18144
2017-09-11T08:26:53.205Z,10260
2017-09-11T08:27:53.956Z,15040
2017-09-11T08:28:54.698Z,12544
2017-09-11T08:29:55.427Z,16960
2017-09-11T08:30:56.158Z,18752
2017-09-11T08:31:56.909Z,17056
2017-09-11T08:32:57.642Z,21120
2017-09-11T08:33:58.397Z,10668
2017-09-11T08:34:59.127Z,9688
2017-09-11T08:35:59.859Z,7148
2017-09-11T08:37:00.591Z,5664
2017-09-11T08:38:01.341Z,7560
2017-09-11T08:39:02.092Z,9224
2017-09-11T08:40:02.845Z,6452
2017-09-11T08:41:03.575Z,9560
2017-09-11T08:42:04.302Z,11680
2017-09-11T08:43:05.033Z,32928
2017-09-11T08:44:05.764Z,12280
2017-09-11T08:45:06.494Z,9536
2017-09-11T08:46:07.223Z,26944
2017-09-11T08:47:07.958Z,47136
2017-09-11T08:48:08.712Z,19680
2017-09-11T08:49:09.443Z,8872
2017-09-11T08:50:10.173Z,12196
2017-09-11T08:51:10.904Z,59168
2017-09-11T08:52:11.637Z,9780
2017-09-11T08:53:12.368Z,11132
2017-09-11T08:54:13.099Z,39136
2017-09-11T08:55:13.830Z,44640
2017-09-11T08:56:14.586Z,64928
2017-09-11T08:57:15.344Z,66976
2017-09-11T08:58:16.081Z,70592
2017-09-11T08:59:16.839Z,35840
2017-09-11T09:00:17.575Z,49760
2017-09-11T09:01:18.334Z,61632
2017-09-11T09:02:19.069Z,17152
2017-09-11T09:03:19.825Z,20992
2017-09-11T09:04:20.586Z,43360
2017-09-11T09:05:21.344Z,9744
2017-09-11T09:06:22.078Z,11764
2017-09-11T09:07:22.835Z,6688
2017-09-11T09:08:23.569Z,5672
2017-09-11T09:09:24.321Z,4760
2017-09-11T09:10:25.055Z,3896
2017-09-11T09:11:25.788Z,3832
2017-09-11T09:12:26.525Z,3868
2017-09-11T09:13:27.244Z,4188
2017-09-11T09:14:27.973Z,5008
2017-09-11T09:15:28.702Z,6128
2017-09-11T09:16:29.432Z,9964
2017-09-11T09:17:30.166Z,66624
2017-09-11T09:18:30.898Z,35616
2017-09-11T09:19:31.656Z,14360
2017-09-11T09:20:32.400Z,12692
2017-09-11T09:21:33.119Z,14924
2017-09-11T09:22:33.850Z,20128
2017-09-11T09:23:34.590Z,8552
2017-09-11T09:24:35.319Z,9704
2017-09-11T09:25:36.074Z,8532
2017-09-11T09:26:36.805Z,7180
2017-09-11T09:27:37.535Z,11172
2017-09-11T09:28:38.267Z,15416
2017-09-11T09:29:38.999Z,15636
2017-09-11T09:30:39.733Z,46400
2017-09-11T09:31:40.463Z,36288
2017-09-11T09:32:41.218Z,34368
2017-09-11T09:33:41.951Z,18784
2017-09-11T09:34:42.684Z,70912
2017-09-11T09:35:43.422Z,75392
2017-09-11T09:36:44.183Z,74144
2017-09-11T09:37:44.918Z,72320
2017-09-11T09:38:45.679Z,68224
2017-09-11T09:39:46.417Z,75040
2017-09-11T09:40:47.164Z,73504
2017-09-11T09:41:47.898Z,73024
2017-09-11T09:42:48.637Z,74496
2017-09-11T09:43:49.401Z,70688
2017-09-11T09:44:50.140Z,70336
2017-09-11T09:45:50.883Z,20064
2017-09-11T09:46:51.627Z,67712
2017-09-11T09:47:52.390Z,26656
2017-09-11T09:48:53.133Z,69440
2017-09-11T09:49:53.877Z,71072
2017-09-11T09:50:54.643Z,68704
2017-09-11T09:51:55.408Z,13056
2017-09-11T09:52:56.149Z,9744
2017-09-11T09:53:56.889Z,11672
2017-09-11T09:54:57.630Z,11768
2017-09-11T09:55:58.368Z,12684
2017-09-11T09:56:59.106Z,11968
2017-09-11T09:57:59.843Z,23840
2017-09-11T09:59:00.579Z,68256
2017-09-11T10:00:01.317Z,65824
2017-09-11T10:01:02.057Z,64096
2017-09-11T10:02:02.792Z,67872
2017-09-11T10:03:03.533Z,18208
2017-09-11T10:04:04.274Z,60416
2017-09-11T10:05:05.016Z,14704
2017-09-11T10:06:05.757Z,26496
2017-09-11T10:07:06.518Z,12376
2017-09-11T10:08:07.256Z,21952
2017-09-11T10:09:07.993Z,10060
2017-09-11T10:10:08.728Z,5956
2017-09-11T10:11:09.484Z,4396
2017-09-11T10:12:10.218Z,3604
2017-09-11T10:13:10.972Z,3384
2017-09-11T10:14:11.727Z,3404
2017-09-11T10:15:12.459Z,4768
2017-09-11T10:16:13.217Z,7740
2017-09-11T10:17:13.970Z,12688
2017-09-11T10:18:14.705Z,75328
2017-09-11T10:19:15.443Z,77184
2017-09-11T10:20:16.200Z,32160
2017-09-11T10:21:16.956Z,12376
2017-09-11T10:22:17.713Z,9976
2017-09-11T10:23:18.446Z,7256
2017-09-11T10:24:19.179Z,5268
2017-09-11T10:25:19.911Z,4076
2017-09-11T10:26:20.645Z,3348
2017-09-11T10:27:21.395Z,3276
2017-09-11T10:28:22.126Z,3412
2017-09-11T10:29:22.856Z,4100
2017-09-11T10:30:23.590Z,5164
2017-09-11T10:31:24.316Z,6728
2017-09-11T10:32:25.043Z,9436
2017-09-11T10:33:25.829Z,85152
2017-09-11T10:34:26.533Z,43744
2017-09-11T10:35:27.261Z,27744
2017-09-11T10:36:27.995Z,85120
2017-09-11T10:37:28.730Z,82048
2017-09-11T10:38:29.487Z,82144
2017-09-11T10:39:30.247Z,82528
2017-09-11T10:40:30.988Z,62432
2017-09-11T10:41:31.728Z,40576
2017-09-11T10:42:32.492Z,80800
2017-09-11T10:43:33.224Z,60736
2017-09-11T10:44:33.987Z,63904
2017-09-11T10:45:34.728Z,11692
2017-09-11T10:46:35.464Z,7668
2017-09-11T10:47:36.198Z,5904
2017-09-11T10:48:36.931Z,5296
2017-09-11T10:49:37.664Z,5996
2017-09-11T10:50:38.422Z,5484
2017-09-11T10:51:39.156Z,5416
2017-09-11T10:52:39.911Z,5028
2017-09-11T10:53:40.640Z,5036
2017-09-11T10:54:41.370Z,6368
2017-09-11T10:55:42.103Z,7652
2017-09-11T10:56:42.833Z,7480
2017-09-11T10:57:43.567Z,9552
2017-09-11T10:58:44.297Z,12340
2017-09-11T10:59:45.031Z,52832
2017-09-11T11:00:45.767Z,78848
2017-09-11T11:01:46.500Z,76544
2017-09-11T11:02:47.235Z,73152
2017-09-11T11:03:47.972Z,83744
2017-09-11T11:04:48.712Z,82400
2017-09-11T11:05:49.448Z,82176
2017-09-11T11:06:50.209Z,13952
2017-09-11T11:07:50.972Z,15980
2017-09-11T11:08:51.709Z,14848
2017-09-11T11:09:52.451Z,11928
2017-09-11T11:10:53.202Z,11556
2017-09-11T11:11:53.937Z,8808
2017-09-11T11:12:54.671Z,7304
2017-09-11T11:13:55.404Z,9172
2017-09-11T11:14:56.160Z,90048
2017-09-11T11:15:56.897Z,84096
2017-09-11T11:16:57.634Z,86976
2017-09-11T11:17:58.367Z,30112
2017-09-11T11:18:59.104Z,24864
2017-09-11T11:19:59.841Z,33984
2017-09-11T11:21:00.576Z,75904
2017-09-11T11:22:01.310Z,14220
2017-09-11T11:23:02.047Z,12020
2017-09-11T11:24:02.816Z,11256
2017-09-11T11:25:03.538Z,19712
2017-09-11T11:26:04.273Z,36128
2017-09-11T11:27:05.034Z,37664
2017-09-11T11:28:05.771Z,17664
2017-09-11T11:29:06.503Z,13224
2017-09-11T11:30:07.261Z,10896
2017-09-11T11:31:08.013Z,11368
2017-09-11T11:32:08.771Z,15976
2017-09-11T11:33:09.504Z,30432
2017-09-11T11:34:10.238Z,38432
2017-09-11T11:35:10.972Z,33312
2017-09-11T11:36:11.730Z,18144
2017-09-11T11:37:12.462Z,83264
2017-09-11T11:38:13.224Z,78880
2017-09-11T11:39:13.981Z,85024
2017-09-11T11:40:14.713Z,13536
2017-09-11T11:41:15.451Z,18816
2017-09-11T11:42:16.183Z,8376
2017-09-11T11:43:16.916Z,5412
2017-09-11T11:44:17.672Z,5464
2017-09-11T11:45:18.447Z,10808
2017-09-11T11:46:19.166Z,16608
2017-09-11T11:47:19.896Z,80480
2017-09-11T11:48:20.630Z,21088
2017-09-11T11:49:21.367Z,64896
2017-09-11T11:50:22.104Z,12212
2017-09-11T11:51:22.836Z,7756
2017-09-11T11:52:23.572Z,5684
2017-09-11T11:53:24.304Z,4772
2017-09-11T11:54:25.036Z,4592
2017-09-11T11:55:25.766Z,4444
2017-09-11T11:56:26.498Z,5432
2017-09-11T11:57:27.229Z,8672
2017-09-11T11:58:27.965Z,23136
2017-09-11T11:59:28.696Z,89664
2017-09-11T12:00:29.430Z,88640
2017-09-11T12:01:30.166Z,18848
2017-09-11T12:02:30.924Z,18656
2017-09-11T12:03:31.660Z,25216
2017-09-11T12:04:32.397Z,11540
2017-09-11T12:05:33.129Z,15096
2017-09-11T12:06:33.866Z,81664
2017-09-11T12:07:34.627Z,10640
2017-09-11T12:08:35.359Z,36864
2017-09-11T12:09:36.097Z,37792
2017-09-11T12:10:36.832Z,19680
2017-09-11T12:11:37.568Z,12288
2017-09-11T12:12:38.300Z,12952
2017-09-11T12:13:39.059Z,20768
2017-09-11T12:14:39.817Z,16152
2017-09-11T12:15:40.549Z,19648
2017-09-11T12:16:41.281Z,26304
2017-09-11T12:17:42.019Z,42560
2017-09-11T12:18:42.751Z,29312
2017-09-11T12:19:43.486Z,79680
2017-09-11T12:20:44.222Z,25856
2017-09-11T12:21:44.979Z,16360
2017-09-11T12:22:45.737Z,11828
2017-09-11T12:23:46.473Z,11056
2017-09-11T12:24:47.206Z,12868
2017-09-11T12:25:47.940Z,13484
2017-09-11T12:26:48.674Z,37600
2017-09-11T12:27:49.407Z,13712
2017-09-11T12:28:50.142Z,10356
2017-09-11T12:29:50.879Z,8940
2017-09-11T12:30:51.605Z,9656
2017-09-11T12:31:52.335Z,10252
2017-09-11T12:32:53.069Z,6652
2017-09-11T12:33:53.798Z,5672
2017-09-11T12:34:54.528Z,5500
2017-09-11T12:35:55.258Z,3064
2017-09-11T12:36:55.999Z,3128
2017-09-11T12:37:56.747Z,4196
2017-09-11T12:38:57.496Z,7332
2017-09-11T12:39:58.250Z,47520
2017-09-11T12:40:58.979Z,81088
2017-09-11T12:41:59.715Z,75968
2017-09-11T12:43:00.474Z,76352
2017-09-11T12:44:01.212Z,70464
2017-09-11T12:45:01.947Z,80736
2017-09-11T12:46:02.681Z,77312
2017-09-11T12:47:03.439Z,55008
2017-09-11T12:48:04.180Z,77536
2017-09-11T12:49:04.921Z,74272
2017-09-11T12:50:05.660Z,12112
2017-09-11T12:51:06.402Z,13240
2017-09-11T12:52:07.142Z,10556
2017-09-11T12:53:07.878Z,6220
2017-09-11T12:54:08.610Z,4296
2017-09-11T12:55:09.358Z,4404
2017-09-11T12:56:10.082Z,5552
2017-09-11T12:57:10.816Z,8568
2017-09-11T12:58:11.550Z,10440
2017-09-11T12:59:12.281Z,9224
2017-09-11T13:00:13.032Z,7444
2017-09-11T13:01:13.787Z,6712
2017-09-11T13:02:14.515Z,7112
2017-09-11T13:03:15.265Z,8956
2017-09-11T13:04:15.999Z,8180
2017-09-11T13:05:16.729Z,7308
2017-09-11T13:06:17.461Z,5496
2017-09-11T13:07:18.197Z,3680
2017-09-11T13:08:18.943Z,2252
2017-09-11T13:09:19.672Z,1964
2017-09-11T13:10:20.401Z,1944
2017-09-11T13:11:21.130Z,2232
2017-09-11T13:12:21.859Z,2676
2017-09-11T13:13:22.591Z,3676
2017-09-11T13:14:23.342Z,5424
2017-09-11T13:15:24.073Z,11020
2017-09-11T13:16:24.801Z,10448
2017-09-11T13:17:25.529Z,12104
2017-09-11T13:18:26.281Z,9080
2017-09-11T13:19:27.008Z,6664
2017-09-11T13:20:27.736Z,4480
2017-09-11T13:21:28.488Z,2688
2017-09-11T13:22:29.215Z,2376
2017-09-11T13:23:29.944Z,2988
2017-09-11T13:24:30.669Z,3848
2017-09-11T13:25:31.398Z,5468
2017-09-11T13:26:32.130Z,11496
2017-09-11T13:27:32.861Z,41664
2017-09-11T13:28:33.612Z,12712
2017-09-11T13:29:34.339Z,9912
2017-09-11T13:30:35.090Z,8132
2017-09-11T13:31:35.842Z,5484
2017-09-11T13:32:36.569Z,3880
2017-09-11T13:33:37.299Z,3376
2017-09-11T13:34:38.051Z,3556
2017-09-11T13:35:38.777Z,3640
2017-09-11T13:36:39.508Z,3252
2017-09-11T13:37:40.240Z,2936
2017-09-11T13:38:40.964Z,2672
2017-09-11T13:39:41.693Z,3456
2017-09-11T13:40:42.444Z,4544
2017-09-11T13:41:43.170Z,6044
2017-09-11T13:42:43.900Z,34400
2017-09-11T13:43:44.629Z,61504
2017-09-11T13:44:45.358Z,52064
2017-09-11T13:45:46.092Z,42272
2017-09-11T13:46:46.825Z,55872
2017-09-11T13:47:47.592Z,44384
2017-09-11T13:48:48.293Z,40000
2017-09-11T13:49:49.025Z,33664
2017-09-11T13:50:49.758Z,38880
2017-09-11T13:51:50.488Z,39744
2017-09-11T13:52:51.226Z,49696